createdAt,value
2022-08-11T00:01:22.610Z,2.53
2022-08-11T00:06:37.819Z,2.55
2022-08-11T00:09:16.628Z,2.10
2022-08-11T00:11:48.280Z,1.92
2022-08-11T00:14:21.008Z,3.30
2022-08-11T00:16:58.678Z,2.30
2022-08-11T00:20:12.373Z,2.63
2022-08-11T00:22:23.771Z,1.80
2022-08-11T00:24:53.903Z,2.08
2022-08-11T00:27:34.751Z,2.25
2022-08-11T00:30:02.131Z,2.40
2022-08-11T00:32:31.067Z,3.60
2022-08-11T00:35:56.094Z,2.20
2022-08-11T00:37:50.830Z,2.20
2022-08-11T00:40:29.712Z,2.72
2022-08-11T00:43:20.897Z,1.95
2022-08-11T00:46:19.909Z,2.25
2022-08-11T00:49:02.357Z,2.45
2022-08-11T00:52:06.326Z,2.45
2022-08-11T00:55:04.027Z,2.20
2022-08-11T00:57:52.774Z,2.17
2022-08-11T01:00:23.545Z,2.13
2022-08-11T01:03:20.791Z,2.45
2022-08-11T01:06:03.894Z,2.05
2022-08-11T01:08:54.101Z,2.20
2022-08-11T01:11:32.708Z,1.77
2022-08-11T01:14:06.348Z,2.60
2022-08-11T01:17:12.301Z,1.90
2022-08-11T01:20:44.827Z,2.08
2022-08-11T01:23:07.823Z,2.00
2022-08-11T01:26:16.445Z,2.20
2022-08-11T01:29:12.948Z,2.67
2022-08-11T01:32:01.693Z,2.75
2022-08-11T01:34:43.232Z,1.88
2022-08-11T01:37:48.204Z,2.30
2022-08-11T01:40:30.596Z,1.63
2022-08-11T01:43:53.810Z,2.10
2022-08-11T01:46:40.688Z,2.80
2022-08-11T01:50:05.200Z,1.52
2022-08-11T01:52:44.957Z,2.03
2022-08-11T01:55:27.247Z,2.25
2022-08-11T01:58:07.059Z,1.70
2022-08-11T02:00:51.189Z,1.50
2022-08-11T02:03:30.157Z,1.92
2022-08-11T02:06:26.411Z,1.70
2022-08-11T02:09:13.429Z,1.90
2022-08-11T02:11:47.636Z,1.88
2022-08-11T02:14:40.585Z,1.95
2022-08-11T02:17:54.957Z,1.95
2022-08-11T02:20:45.532Z,1.80
2022-08-11T02:24:05.881Z,1.70
2022-08-11T02:26:39.830Z,1.95
2022-08-11T02:29:13.786Z,1.75
2022-08-11T02:32:24.114Z,1.70
2022-08-11T02:35:02.718Z,1.77
2022-08-11T02:37:45.302Z,2.30
2022-08-11T02:40:41.776Z,1.65
2022-08-11T02:43:20.286Z,1.48
2022-08-11T02:46:18.432Z,2.33
2022-08-11T02:49:31.006Z,2.15
2022-08-11T02:52:25.336Z,3.03
2022-08-11T02:55:56.709Z,1.90
2022-08-11T02:58:32.861Z,2.00
2022-08-11T03:01:19.452Z,2.17
2022-08-11T03:03:59.350Z,1.85
2022-08-11T03:06:45.295Z,2.75
2022-08-11T03:09:25.312Z,2.30
2022-08-11T03:12:36.000Z,2.85
2022-08-11T03:15:30.526Z,2.72
2022-08-11T03:18:06.382Z,2.10
2022-08-11T03:20:43.695Z,1.95
2022-08-11T03:23:34.864Z,2.30
2022-08-11T03:26:15.953Z,2.53
2022-08-11T03:28:53.724Z,2.25
2022-08-11T03:31:39.854Z,2.55
2022-08-11T03:34:17.756Z,2.20
2022-08-11T03:37:35.285Z,2.15
2022-08-11T03:40:08.296Z,1.90
2022-08-11T03:42:44.254Z,2.13
2022-08-11T03:45:41.123Z,2.00
2022-08-11T03:48:26.138Z,2.00
2022-08-11T03:53:56.779Z,1.92
2022-08-11T03:57:07.391Z,2.17
2022-08-11T04:00:11.379Z,2.17
2022-08-11T04:03:08.394Z,2.30
2022-08-11T04:06:13.465Z,1.90
2022-08-11T04:08:43.084Z,2.53
2022-08-11T04:11:34.308Z,2.47
2022-08-11T04:14:38.056Z,2.45
2022-08-11T04:17:42.932Z,2.50
2022-08-11T04:20:52.135Z,3.10
2022-08-11T04:24:38.500Z,2.58
2022-08-11T04:27:39.117Z,1.83
2022-08-11T04:30:17.745Z,2.40
2022-08-11T04:33:34.251Z,2.83
2022-08-11T04:36:54.382Z,2.63
2022-08-11T04:39:43.667Z,2.67
2022-08-11T04:43:07.087Z,2.80
2022-08-11T04:45:52.544Z,2.33
2022-08-11T05:03:48.858Z,2.40
2022-08-11T05:06:53.610Z,2.13
2022-08-11T05:09:39.221Z,2.40
2022-08-11T05:12:31.453Z,3.67
2022-08-11T05:15:18.464Z,2.50
2022-08-11T05:18:42.071Z,2.55
2022-08-11T05:21:44.476Z,2.30
2022-08-11T05:24:38.917Z,2.72
2022-08-11T05:27:28.280Z,2.25
2022-08-11T05:30:34.330Z,2.38
2022-08-11T05:33:26.903Z,2.28
2022-08-11T05:36:17.817Z,2.65
2022-08-11T05:39:14.893Z,2.33
2022-08-11T05:42:01.021Z,2.38
2022-08-11T05:44:47.120Z,2.65
2022-08-11T05:47:42.613Z,2.00
2022-08-11T05:53:20.057Z,2.60
2022-08-11T05:56:08.132Z,3.08
2022-08-11T05:58:43.747Z,2.53
2022-08-11T06:01:13.249Z,2.08
2022-08-11T06:04:03.280Z,2.28
2022-08-11T06:06:30.931Z,2.33
2022-08-11T06:08:59.684Z,2.85
2022-08-11T06:11:44.265Z,2.13
2022-08-11T06:14:15.866Z,2.42
2022-08-11T06:16:43.547Z,1.90
2022-08-11T06:19:10.772Z,2.60
2022-08-11T06:21:40.469Z,2.70
2022-08-11T06:24:15.394Z,2.10
2022-08-11T06:27:11.224Z,2.30
2022-08-11T06:29:47.603Z,1.90
2022-08-11T06:32:15.985Z,2.20
2022-08-11T06:35:02.227Z,2.03
2022-08-11T06:38:03.276Z,1.88
2022-08-11T06:40:36.029Z,2.35
2022-08-11T06:43:19.809Z,2.72
2022-08-11T06:46:04.388Z,1.98
2022-08-11T06:48:33.707Z,2.13
2022-08-11T06:51:12.634Z,2.67
2022-08-11T06:54:04.682Z,1.80
2022-08-11T06:57:29.412Z,1.98
2022-08-11T07:00:04.579Z,2.58
2022-08-11T07:02:34.581Z,2.10
2022-08-11T07:05:08.206Z,2.83
2022-08-11T07:08:35.216Z,1.77
2022-08-11T07:11:57.207Z,1.80
2022-08-11T07:14:45.983Z,2.17
2022-08-11T07:17:18.307Z,1.77
2022-08-11T07:20:10.323Z,2.10
2022-08-11T07:23:10.284Z,1.58
2022-08-11T07:26:00.094Z,1.88
2022-08-11T07:28:48.441Z,1.60
2022-08-11T07:31:24.701Z,1.77
2022-08-11T07:34:06.982Z,1.90
2022-08-11T07:36:46.012Z,1.80
2022-08-11T07:39:21.199Z,1.55
2022-08-11T07:41:49.460Z,1.50
2022-08-11T07:44:17.171Z,1.55
2022-08-11T07:47:04.800Z,2.30
2022-08-11T07:49:54.272Z,1.85
2022-08-11T07:52:32.526Z,1.60
2022-08-11T07:55:51.255Z,1.73
2022-08-11T07:58:44.998Z,1.45
2022-08-11T08:01:41.747Z,1.17
2022-08-11T08:04:32.340Z,1.70
2022-08-11T08:07:19.745Z,1.10
2022-08-11T08:10:07.017Z,1.58
2022-08-11T08:12:55.983Z,1.25
2022-08-11T08:15:42.146Z,1.42
2022-08-11T08:18:25.982Z,1.40
2022-08-11T08:20:59.132Z,1.38
2022-08-11T08:23:34.270Z,1.60
2022-08-11T08:26:04.626Z,1.73
2022-08-11T08:28:33.921Z,1.27
2022-08-11T08:31:00.944Z,1.42
2022-08-11T08:33:32.491Z,1.92
2022-08-11T08:36:12.678Z,1.65
2022-08-11T08:38:50.151Z,1.90
2022-08-11T08:41:29.249Z,1.45
2022-08-11T08:44:21.047Z,1.10
2022-08-11T08:46:56.619Z,1.30
2022-08-11T08:52:01.607Z,1.38
2022-08-11T08:54:45.541Z,1.00
2022-08-11T08:57:14.192Z,1.35
2022-08-11T08:59:48.756Z,1.08
2022-08-11T09:02:34.180Z,1.40
2022-08-11T09:05:03.762Z,1.10
2022-08-11T09:07:39.409Z,0.88
2022-08-11T09:10:09.176Z,1.90
2022-08-11T09:12:40.519Z,1.00
2022-08-11T09:15:09.249Z,0.95
2022-08-11T09:17:39.762Z,1.17
2022-08-11T09:20:17.282Z,0.82
2022-08-11T09:26:19.759Z,1.17
2022-08-11T09:28:49.741Z,1.20
2022-08-11T09:31:16.828Z,1.10
2022-08-11T09:33:45.968Z,1.13
2022-08-11T09:36:32.361Z,1.00
2022-08-11T09:39:19.223Z,1.05
2022-08-11T09:42:00.393Z,1.10
2022-08-11T09:44:48.954Z,1.10
2022-08-11T09:47:32.281Z,0.80
2022-08-11T09:50:01.578Z,1.40
2022-08-11T09:52:48.087Z,1.50
2022-08-11T09:55:25.304Z,0.90
2022-08-11T09:58:11.927Z,1.02
2022-08-11T10:01:02.239Z,1.10
2022-08-11T10:03:31.584Z,1.08
2022-08-11T10:06:34.092Z,0.82
2022-08-11T10:09:06.274Z,0.90
2022-08-11T10:11:36.369Z,0.90
2022-08-11T10:14:32.910Z,1.05
2022-08-11T10:17:06.982Z,0.80
2022-08-11T10:19:36.533Z,1.02
2022-08-11T10:22:23.951Z,0.82
2022-08-11T10:25:14.492Z,1.00
2022-08-11T10:28:18.736Z,0.98
2022-08-11T10:30:52.414Z,1.10
2022-08-11T10:33:41.773Z,1.17
2022-08-11T10:36:19.377Z,0.82
2022-08-11T10:38:50.377Z,0.80
2022-08-11T10:41:36.644Z,1.02
2022-08-11T10:44:23.714Z,0.77
2022-08-11T10:47:10.502Z,0.98
2022-08-11T10:49:37.705Z,1.00
2022-08-11T10:52:23.476Z,0.77
2022-08-11T10:55:10.013Z,1.10
2022-08-11T10:58:04.987Z,0.90
2022-08-11T11:00:33.380Z,1.02
2022-08-11T11:03:05.422Z,0.95
2022-08-11T11:06:28.790Z,0.98
2022-08-11T11:08:54.068Z,0.90
2022-08-11T11:11:45.112Z,0.80
2022-08-11T11:14:46.105Z,1.00
2022-08-11T11:17:50.808Z,0.80
2022-08-11T11:20:36.467Z,1.00
2022-08-11T11:23:20.548Z,1.08
2022-08-11T11:26:14.794Z,0.90
2022-08-11T11:29:19.060Z,0.95
2022-08-11T11:32:09.512Z,0.85
2022-08-11T11:34:59.326Z,0.95
2022-08-11T11:37:26.952Z,0.60
2022-08-11T11:39:55.416Z,0.75
2022-08-11T11:42:22.975Z,1.10
2022-08-11T11:44:55.758Z,1.02
2022-08-11T11:47:23.777Z,0.73
2022-08-11T11:49:50.896Z,0.80
2022-08-11T11:52:20.561Z,1.02
2022-08-11T11:54:50.536Z,0.73
2022-08-11T11:57:38.035Z,1.20
2022-08-11T12:00:33.598Z,0.80
2022-08-11T12:03:02.916Z,1.58
2022-08-11T12:05:33.740Z,0.90
2022-08-11T12:08:18.209Z,0.85
2022-08-11T12:11:14.258Z,0.93
2022-08-11T12:13:43.417Z,1.20
2022-08-11T12:16:35.390Z,0.90
2022-08-11T12:19:00.833Z,0.70
2022-08-11T12:21:31.354Z,0.90
2022-08-11T12:24:19.755Z,1.20
2022-08-11T12:27:14.691Z,0.80
2022-08-11T12:29:39.907Z,0.80
2022-08-11T12:32:09.077Z,0.73
2022-08-11T12:34:39.278Z,0.75
2022-08-11T12:37:13.264Z,0.85
2022-08-11T12:40:43.446Z,0.70
2022-08-11T12:43:43.765Z,0.73
2022-08-11T12:46:15.037Z,0.90
2022-08-11T12:49:05.777Z,0.63
2022-08-11T12:52:11.112Z,0.55
2022-08-11T12:54:49.764Z,0.95
2022-08-11T12:57:39.144Z,0.80
2022-08-11T13:00:26.007Z,0.95
2022-08-11T13:03:13.590Z,0.80
2022-08-11T13:05:46.477Z,1.08
2022-08-11T13:08:17.749Z,0.65
2022-08-11T13:11:06.679Z,0.85
2022-08-11T13:13:55.270Z,0.70
2022-08-11T13:16:23.245Z,0.52
2022-08-11T13:18:50.969Z,0.47
2022-08-11T13:21:21.892Z,0.38
2022-08-11T13:24:00.686Z,0.68
2022-08-11T13:26:47.633Z,0.73
2022-08-11T13:29:22.687Z,0.60
2022-08-11T13:31:50.579Z,0.50
2022-08-11T13:34:18.400Z,0.85
2022-08-11T13:36:52.618Z,0.60
2022-08-11T13:39:23.964Z,0.77
2022-08-11T13:41:53.554Z,0.70
2022-08-11T13:44:25.574Z,0.70
2022-08-11T13:46:57.838Z,0.70
2022-08-11T13:49:25.880Z,0.77
2022-08-11T13:51:54.341Z,0.60
2022-08-11T13:54:42.505Z,0.77
2022-08-11T13:58:07.242Z,0.65
2022-08-11T14:00:23.446Z,0.80
2022-08-11T14:02:56.673Z,0.60
2022-08-11T14:05:31.865Z,0.60
2022-08-11T14:08:37.792Z,0.68
2022-08-11T14:12:21.883Z,0.70
2022-08-11T14:14:28.073Z,0.77
2022-08-11T14:16:57.396Z,0.77
2022-08-11T14:19:26.731Z,0.57
2022-08-11T14:22:08.109Z,0.50
2022-08-11T14:24:38.977Z,0.65
2022-08-11T14:28:25.688Z,0.43
2022-08-11T14:29:59.081Z,0.50
2022-08-11T14:32:27.720Z,0.43
2022-08-11T14:34:55.255Z,0.63
2022-08-11T14:37:24.159Z,0.43
2022-08-11T14:40:02.259Z,0.60
2022-08-11T14:42:48.821Z,0.68
2022-08-11T14:45:57.503Z,0.47
2022-08-11T14:48:23.637Z,0.50
2022-08-11T14:50:50.564Z,0.40
2022-08-11T14:53:18.930Z,0.50
2022-08-11T14:56:05.482Z,0.50
2022-08-11T14:58:34.041Z,0.50
2022-08-11T15:01:02.682Z,0.32
2022-08-11T15:03:33.835Z,0.70
2022-08-11T15:06:02.469Z,0.80
2022-08-11T15:08:51.556Z,0.50
2022-08-11T15:11:39.211Z,0.40
2022-08-11T15:14:11.263Z,0.70
2022-08-11T15:17:02.484Z,0.50
2022-08-11T15:19:36.686Z,0.63
2022-08-11T15:22:37.407Z,0.60
2022-08-11T15:25:04.320Z,0.60
2022-08-11T15:27:52.947Z,0.70
2022-08-11T15:30:38.316Z,0.38
2022-08-11T15:33:27.064Z,0.52
2022-08-11T15:36:13.880Z,0.52
2022-08-11T15:38:55.790Z,0.73
2022-08-11T15:41:56.470Z,0.50
2022-08-11T15:45:02.000Z,0.98
2022-08-11T15:47:37.611Z,0.60
2022-08-11T15:50:11.301Z,0.68
2022-08-11T15:52:47.873Z,1.13
2022-08-11T15:55:16.932Z,0.57
2022-08-11T15:58:07.763Z,0.70
2022-08-11T16:01:04.370Z,0.82
2022-08-11T16:04:17.110Z,0.88
2022-08-11T16:06:52.880Z,0.80
2022-08-11T16:09:41.363Z,0.77
2022-08-11T16:12:19.356Z,0.52
2022-08-11T16:15:09.293Z,0.80
2022-08-11T16:17:44.505Z,0.60
2022-08-11T16:20:14.292Z,0.63
2022-08-11T16:23:01.428Z,0.85
2022-08-11T16:27:03.405Z,0.60
2022-08-11T16:28:20.960Z,0.70
2022-08-11T16:30:49.514Z,0.70
2022-08-11T16:33:48.866Z,0.70
2022-08-11T16:36:25.041Z,0.65
2022-08-11T16:38:53.936Z,0.95
2022-08-11T16:41:43.104Z,0.60
2022-08-11T16:44:37.656Z,0.55
2022-08-11T16:48:03.414Z,0.73
2022-08-11T16:50:09.385Z,0.80
2022-08-11T16:52:36.818Z,0.70
2022-08-11T16:55:05.320Z,0.82
2022-08-11T16:57:52.859Z,0.77
2022-08-11T17:00:19.576Z,0.65
2022-08-11T17:03:11.635Z,0.93
2022-08-11T17:06:03.364Z,0.93
2022-08-11T17:08:56.917Z,0.82
2022-08-11T17:11:46.501Z,0.88
2022-08-11T17:14:17.754Z,0.90
2022-08-11T17:17:05.842Z,0.50
2022-08-11T17:20:39.863Z,0.70
2022-08-11T17:22:40.152Z,0.65
2022-08-11T17:25:10.161Z,0.90
2022-08-11T17:27:39.094Z,0.90
2022-08-11T17:30:08.060Z,0.60
2022-08-11T17:33:00.722Z,0.80
2022-08-11T17:35:36.169Z,0.80
2022-08-11T17:38:07.046Z,1.10
2022-08-11T17:40:38.989Z,0.70
2022-08-11T17:43:28.535Z,0.50
2022-08-11T17:46:15.895Z,0.80
2022-08-11T17:48:47.899Z,0.60
2022-08-11T17:51:38.887Z,0.52
2022-08-11T17:54:28.480Z,0.45
2022-08-11T17:57:20.311Z,0.52
2022-08-11T17:59:52.945Z,0.60
2022-08-11T18:02:42.244Z,1.02
2022-08-11T18:05:13.462Z,0.50
2022-08-11T18:08:01.999Z,0.65
2022-08-11T18:10:49.832Z,0.80
2022-08-11T18:13:39.030Z,0.40
2022-08-11T18:16:24.835Z,0.70
2022-08-11T18:19:10.834Z,1.05
2022-08-11T18:22:00.685Z,0.73
2022-08-11T18:25:06.937Z,0.70
2022-08-11T18:27:54.756Z,0.70
2022-08-11T18:30:41.442Z,0.57
2022-08-11T18:36:39.861Z,0.95
2022-08-11T18:39:32.118Z,0.90
2022-08-11T18:42:29.538Z,0.73
2022-08-11T18:45:21.607Z,0.90
2022-08-11T18:48:11.665Z,1.10
2022-08-11T18:51:29.665Z,1.40
2022-08-11T18:54:10.552Z,1.15
2022-08-11T18:56:56.844Z,1.05
2022-08-11T18:59:45.643Z,1.40
2022-08-11T19:02:33.546Z,1.10
2022-08-11T19:06:32.205Z,1.15
2022-08-11T19:08:46.337Z,1.05
2022-08-11T19:11:32.621Z,1.10
2022-08-11T19:14:22.751Z,0.82
2022-08-11T19:17:09.697Z,0.90
2022-08-11T19:19:58.251Z,1.00
2022-08-11T19:22:45.441Z,1.02
2022-08-11T19:25:32.316Z,1.00
2022-08-11T19:28:19.112Z,1.13
2022-08-11T19:31:05.714Z,1.17
2022-08-11T19:34:00.356Z,0.90
2022-08-11T19:36:56.603Z,1.20
2022-08-11T19:39:44.041Z,1.30
2022-08-11T19:42:31.261Z,1.20
2022-08-11T19:45:19.067Z,0.93
2022-08-11T19:48:30.566Z,1.10
2022-08-11T19:51:14.463Z,1.10
2022-08-11T19:54:05.624Z,1.20
2022-08-11T19:56:55.260Z,1.35
2022-08-11T19:59:41.049Z,1.17
2022-08-11T20:02:26.303Z,1.50
2022-08-11T20:05:11.331Z,1.15
2022-08-11T20:07:57.115Z,1.30
2022-08-11T20:10:45.392Z,1.13
2022-08-11T20:13:34.690Z,1.45
2022-08-11T20:16:20.749Z,1.05
2022-08-11T20:19:08.720Z,1.40
2022-08-11T20:21:55.876Z,0.82
2022-08-11T20:24:42.146Z,1.63
2022-08-11T20:27:28.477Z,1.30
2022-08-11T20:30:17.774Z,1.40
2022-08-11T20:33:03.890Z,1.40
2022-08-11T20:35:51.518Z,1.13
2022-08-11T20:38:40.299Z,1.23
2022-08-11T20:41:28.232Z,1.40
2022-08-11T20:44:16.053Z,1.42
2022-08-11T20:47:02.133Z,1.20
2022-08-11T20:49:55.115Z,1.27
2022-08-11T20:52:48.061Z,0.95
2022-08-11T20:55:51.550Z,1.25
2022-08-11T20:59:13.431Z,1.23
2022-08-11T21:04:54.316Z,1.30
2022-08-11T21:07:42.077Z,1.40
2022-08-11T21:10:30.175Z,1.45
2022-08-11T21:13:26.059Z,1.63
2022-08-11T21:16:25.775Z,1.20
2022-08-11T21:20:00.331Z,1.10
2022-08-11T21:22:58.596Z,1.63
2022-08-11T21:25:49.953Z,1.55
2022-08-11T21:28:38.594Z,1.42
2022-08-11T21:31:28.981Z,1.40
2022-08-11T21:34:15.896Z,1.73
2022-08-11T21:37:03.474Z,1.30
2022-08-11T21:39:49.270Z,1.48
2022-08-11T21:42:37.628Z,1.60
2022-08-11T21:45:25.757Z,1.55
2022-08-11T21:48:12.489Z,1.60
2022-08-11T21:50:58.234Z,1.92
2022-08-11T21:53:45.431Z,1.55
2022-08-11T21:56:33.405Z,2.30
2022-08-11T21:59:20.172Z,1.83
2022-08-11T22:02:12.342Z,1.27
2022-08-11T22:04:59.452Z,1.40
2022-08-11T22:07:44.634Z,1.60
2022-08-11T22:10:41.465Z,1.45
2022-08-11T22:13:30.714Z,1.52
2022-08-11T22:16:20.198Z,1.60
2022-08-11T22:19:08.921Z,2.05
2022-08-11T22:22:04.201Z,1.63
2022-08-11T22:24:54.874Z,1.60
2022-08-11T22:27:43.485Z,1.30
2022-08-11T22:30:29.664Z,1.67
2022-08-11T22:33:24.450Z,1.52
2022-08-11T22:36:13.327Z,1.63
2022-08-11T22:39:01.480Z,1.60
2022-08-11T22:41:47.315Z,1.70
2022-08-11T22:44:32.493Z,1.90
2022-08-11T22:47:19.563Z,1.50
2022-08-11T22:50:07.430Z,1.80
2022-08-11T22:52:53.665Z,1.63
2022-08-11T22:55:40.415Z,1.70
2022-08-11T22:58:33.286Z,1.80
2022-08-11T23:01:20.193Z,1.70
2022-08-11T23:04:06.254Z,1.60
2022-08-11T23:06:53.324Z,2.30
2022-08-11T23:09:39.108Z,2.10
2022-08-11T23:12:24.735Z,1.83
2022-08-11T23:15:10.616Z,1.95
2022-08-11T23:17:56.281Z,2.05
2022-08-11T23:20:47.463Z,1.92
2022-08-11T23:23:36.606Z,1.90
2022-08-11T23:26:24.713Z,1.73
2022-08-11T23:29:14.440Z,1.98
2022-08-11T23:32:00.965Z,2.22
2022-08-11T23:35:03.456Z,1.90
2022-08-11T23:37:51.266Z,1.70
2022-08-11T23:40:36.676Z,1.58
2022-08-11T23:43:22.518Z,1.70
2022-08-11T23:46:08.399Z,1.73
2022-08-11T23:48:56.329Z,2.55
2022-08-11T23:51:42.552Z,2.10
2022-08-11T23:54:32.647Z,2.50
2022-08-11T23:57:23.521Z,1.58
